createdAt,value
2019-04-25T00:01:57.039Z,9.41
2019-04-25T00:04:25.765Z,9.50
2019-04-25T00:06:54.695Z,9.63
2019-04-25T00:09:25.930Z,9.55
2019-04-25T00:11:54.651Z,9.49
2019-04-25T00:14:23.790Z,9.36
2019-04-25T00:16:53.459Z,9.33
2019-04-25T00:19:22.189Z,9.27
2019-04-25T00:22:08.784Z,9.36
2019-04-25T00:24:43.279Z,9.34
2019-04-25T00:27:12.635Z,9.44
2019-04-25T00:29:43.950Z,9.28
2019-04-25T00:32:12.740Z,9.15
2019-04-25T00:34:44.234Z,9.12
2019-04-25T00:37:13.999Z,9.02
2019-04-25T00:39:44.746Z,9.18
2019-04-25T00:42:13.288Z,9.15
2019-04-25T00:44:44.550Z,9.10
2019-04-25T00:47:12.504Z,9.14
2019-04-25T00:49:43.055Z,9.04
2019-04-25T00:52:12.252Z,9.13
2019-04-25T00:54:41.454Z,9.01
2019-04-25T00:57:12.174Z,8.94
2019-04-25T00:59:44.320Z,8.98
2019-04-25T01:02:15.692Z,9.03
2019-04-25T01:04:45.173Z,8.98
2019-04-25T01:07:14.139Z,8.89
2019-04-25T01:09:43.479Z,8.83
2019-04-25T01:12:14.866Z,8.80
2019-04-25T01:14:44.269Z,8.80
2019-04-25T01:17:14.169Z,8.77
2019-04-25T01:19:44.929Z,8.79
2019-04-25T01:22:15.337Z,8.80
2019-04-25T01:24:44.095Z,8.87
2019-04-25T01:27:13.543Z,8.81
2019-04-25T01:29:42.465Z,8.83
2019-04-25T01:32:13.970Z,8.85
2019-04-25T01:34:44.433Z,8.78
2019-04-25T01:37:15.615Z,8.72
2019-04-25T01:39:51.950Z,8.69
2019-04-25T01:42:28.171Z,8.64
2019-04-25T01:44:58.007Z,8.67
2019-04-25T01:47:27.346Z,8.71
2019-04-25T01:49:56.969Z,8.96
2019-04-25T01:52:25.692Z,9.19
2019-04-25T01:54:55.780Z,9.06
2019-04-25T01:57:25.005Z,9.08
2019-04-25T01:59:55.022Z,9.01
2019-04-25T02:02:25.705Z,8.72
2019-04-25T02:04:56.842Z,8.58
2019-04-25T02:07:24.927Z,8.49
2019-04-25T02:09:54.828Z,8.41
2019-04-25T02:12:25.607Z,8.37
2019-04-25T02:14:55.503Z,8.28
2019-04-25T02:17:24.937Z,8.23
2019-04-25T02:19:56.605Z,8.17
2019-04-25T02:22:25.452Z,8.15
2019-04-25T02:24:55.675Z,8.16
2019-04-25T02:27:24.806Z,8.24
2019-04-25T02:29:55.851Z,8.21
2019-04-25T02:32:24.858Z,8.23
2019-04-25T02:35:00.585Z,8.18
2019-04-25T02:37:27.471Z,8.23
2019-04-25T02:39:59.721Z,8.23
2019-04-25T02:42:26.823Z,8.18
2019-04-25T02:45:09.284Z,8.17
2019-04-25T02:47:57.759Z,8.10
2019-04-25T02:50:31.079Z,8.08
2019-04-25T02:53:06.134Z,8.10
2019-04-25T02:55:37.587Z,8.06
2019-04-25T02:58:10.013Z,8.01
2019-04-25T03:00:51.717Z,7.96
2019-04-25T03:03:08.344Z,8.03
2019-04-25T03:05:37.377Z,8.07
2019-04-25T03:08:09.973Z,8.08
2019-04-25T03:10:36.906Z,8.04
2019-04-25T03:13:11.228Z,8.02
2019-04-25T03:15:36.574Z,8.00
2019-04-25T03:18:10.347Z,8.05
2019-04-25T03:20:45.176Z,8.01
2019-04-25T03:23:15.660Z,7.95
2019-04-25T03:25:44.497Z,7.92
2019-04-25T03:28:15.639Z,7.96
2019-04-25T03:30:45.038Z,7.96
2019-04-25T03:33:19.279Z,8.02
2019-04-25T03:35:45.303Z,8.01
2019-04-25T03:38:14.485Z,8.00
2019-04-25T03:40:43.933Z,8.00
2019-04-25T03:43:14.850Z,8.00
2019-04-25T03:45:46.381Z,8.05
2019-04-25T03:48:15.111Z,8.05
2019-04-25T03:50:44.196Z,8.05
2019-04-25T03:53:13.927Z,8.10
2019-04-25T03:55:44.354Z,8.15
2019-04-25T03:58:14.653Z,8.23
2019-04-25T04:00:44.727Z,8.29
2019-04-25T04:03:14.931Z,8.43
2019-04-25T04:05:44.227Z,8.52
2019-04-25T04:08:14.854Z,8.58
2019-04-25T04:10:43.451Z,8.64
2019-04-25T04:13:12.341Z,8.72
2019-04-25T04:15:41.052Z,8.83
2019-04-25T04:18:16.295Z,8.90
2019-04-25T04:20:49.199Z,9.02
2019-04-25T04:23:19.505Z,9.14
2019-04-25T04:25:48.228Z,9.20
2019-04-25T04:28:17.131Z,9.24
2019-04-25T04:30:45.854Z,9.33
2019-04-25T04:33:25.712Z,9.42
2019-04-25T04:35:45.320Z,9.51
2019-04-25T04:38:15.051Z,9.61
2019-04-25T04:40:44.323Z,9.79
2019-04-25T04:43:15.360Z,9.96
2019-04-25T04:45:45.634Z,10.03
2019-04-25T04:48:15.496Z,10.18
2019-04-25T04:50:44.561Z,10.35
2019-04-25T04:53:14.961Z,10.53
2019-04-25T04:55:43.739Z,10.82
2019-04-25T04:58:14.335Z,11.06
2019-04-25T05:00:43.772Z,11.15
2019-04-25T05:03:30.721Z,11.45
2019-04-25T05:06:01.019Z,11.55
2019-04-25T05:08:34.114Z,11.70
2019-04-25T05:11:04.027Z,11.78
2019-04-25T05:13:34.211Z,12.12
2019-04-25T05:16:03.230Z,12.35
2019-04-25T05:18:38.052Z,12.47
2019-04-25T05:21:04.163Z,12.51
2019-04-25T05:23:34.388Z,12.86
2019-04-25T05:26:04.740Z,12.92
2019-04-25T05:28:33.521Z,13.28
2019-04-25T05:31:10.064Z,13.38
2019-04-25T05:33:38.790Z,13.37
2019-04-25T05:36:07.571Z,13.43
2019-04-25T05:38:36.443Z,13.61
2019-04-25T05:41:06.745Z,13.72
2019-04-25T05:43:35.469Z,13.86
2019-04-25T05:46:04.462Z,14.12
2019-04-25T05:48:34.017Z,13.71
2019-04-25T05:51:03.896Z,13.79
2019-04-25T05:53:33.352Z,14.37
2019-04-25T05:56:04.033Z,14.67
2019-04-25T05:58:33.734Z,14.61
2019-04-25T06:01:03.383Z,14.10
2019-04-25T06:03:33.825Z,14.13
2019-04-25T06:06:03.365Z,14.39
2019-04-25T06:08:34.234Z,14.55
2019-04-25T06:11:10.360Z,14.66
2019-04-25T06:13:40.886Z,14.83
2019-04-25T06:16:11.181Z,14.82
2019-04-25T06:19:11.294Z,14.95
2019-04-25T06:21:29.307Z,15.03
2019-04-25T06:24:15.441Z,14.67
2019-04-25T06:26:46.438Z,15.16
2019-04-25T06:29:15.169Z,15.29
2019-04-25T06:31:43.997Z,15.50
2019-04-25T06:34:14.078Z,15.70
2019-04-25T06:36:44.058Z,15.66
2019-04-25T06:39:14.180Z,15.45
2019-04-25T06:41:44.177Z,15.73
2019-04-25T06:44:14.603Z,16.05
2019-04-25T06:47:03.446Z,16.08
2019-04-25T06:49:36.495Z,16.42
2019-04-25T06:52:04.282Z,16.72
2019-04-25T06:54:33.545Z,16.89
2019-04-25T06:57:04.531Z,16.59
2019-04-25T06:59:34.481Z,16.53
2019-04-25T07:02:04.199Z,16.49
2019-04-25T07:04:34.543Z,17.14
2019-04-25T07:07:10.488Z,17.43
2019-04-25T07:09:35.961Z,17.70
2019-04-25T07:12:05.092Z,17.64
2019-04-25T07:14:36.674Z,17.59
2019-04-25T07:17:04.527Z,18.10
2019-04-25T07:19:34.297Z,18.43
2019-04-25T07:22:04.047Z,18.53
2019-04-25T07:24:35.025Z,18.73
2019-04-25T07:27:10.834Z,18.91
2019-04-25T07:29:44.106Z,18.92
2019-04-25T07:32:20.292Z,19.18
2019-04-25T07:34:50.262Z,19.44
2019-04-25T07:37:18.984Z,19.68
2019-04-25T07:39:47.712Z,19.31
2019-04-25T07:42:16.634Z,19.31
2019-04-25T07:44:52.221Z,18.98
2019-04-25T07:47:16.074Z,18.78
2019-04-25T07:49:44.930Z,19.23
2019-04-25T07:52:13.693Z,19.01
2019-04-25T07:54:43.923Z,19.57
2019-04-25T07:57:13.512Z,19.36
2019-04-25T07:59:43.624Z,19.62
2019-04-25T08:02:13.380Z,19.68
2019-04-25T08:04:44.215Z,19.69
2019-04-25T08:07:14.249Z,19.98
2019-04-25T08:09:44.283Z,19.93
2019-04-25T08:12:13.426Z,19.91
2019-04-25T08:14:45.860Z,19.92
2019-04-25T08:17:18.755Z,20.24
2019-04-25T08:19:48.047Z,20.60
2019-04-25T08:22:16.964Z,20.74
2019-04-25T08:24:46.263Z,20.87
2019-04-25T08:27:15.000Z,20.97
2019-04-25T08:29:45.514Z,21.04
2019-04-25T08:32:14.369Z,21.02
2019-04-25T08:34:44.647Z,21.39
2019-04-25T08:37:20.339Z,21.67
2019-04-25T08:39:45.112Z,21.68
2019-04-25T08:42:14.780Z,21.86
2019-04-25T08:44:44.908Z,21.54
2019-04-25T08:47:14.678Z,20.60
2019-04-25T08:49:45.992Z,20.50
2019-04-25T08:52:14.933Z,20.86
2019-04-25T08:54:51.242Z,20.86
2019-04-25T08:57:21.533Z,21.45
2019-04-25T08:59:55.576Z,21.44
2019-04-25T09:02:44.647Z,20.91
2019-04-25T09:05:26.996Z,21.06
2019-04-25T09:07:56.855Z,21.50
2019-04-25T09:10:25.584Z,21.65
2019-04-25T09:12:54.313Z,21.29
2019-04-25T09:15:24.169Z,21.40
2019-04-25T09:17:54.702Z,21.04
2019-04-25T09:20:23.666Z,20.86
2019-04-25T09:22:54.116Z,20.94
2019-04-25T09:25:23.817Z,21.50
2019-04-25T09:27:54.376Z,21.38
2019-04-25T09:30:24.106Z,21.74
2019-04-25T09:32:53.394Z,21.21
2019-04-25T09:35:23.590Z,21.45
2019-04-25T09:37:53.537Z,21.69
2019-04-25T09:40:23.973Z,21.23
2019-04-25T09:42:53.705Z,21.75
2019-04-25T09:45:37.604Z,22.55
2019-04-25T09:48:24.707Z,22.25
2019-04-25T09:50:55.065Z,22.30
2019-04-25T09:53:24.308Z,22.56
2019-04-25T09:55:58.822Z,22.84
2019-04-25T09:58:48.157Z,22.56
2019-04-25T10:01:17.817Z,22.64
2019-04-25T10:03:47.348Z,22.83
2019-04-25T10:06:18.215Z,22.69
2019-04-25T10:08:47.499Z,22.49
2019-04-25T10:11:16.328Z,23.23
2019-04-25T10:13:48.114Z,22.86
2019-04-25T10:16:16.954Z,22.72
2019-04-25T10:18:45.894Z,23.26
2019-04-25T10:21:15.345Z,23.47
2019-04-25T10:23:46.477Z,23.13
2019-04-25T10:26:14.789Z,22.60
2019-04-25T10:28:45.031Z,22.59
2019-04-25T10:31:13.878Z,23.02
2019-04-25T10:33:45.296Z,23.61
2019-04-25T10:36:14.461Z,23.70
2019-04-25T10:38:46.297Z,23.75
2019-04-25T10:41:14.329Z,23.61
2019-04-25T10:43:44.020Z,23.36
2019-04-25T10:46:14.101Z,23.53
2019-04-25T10:48:43.977Z,23.78
2019-04-25T10:51:13.858Z,23.58
2019-04-25T10:53:45.418Z,23.57
2019-04-25T10:56:14.112Z,23.62
2019-04-25T10:58:44.487Z,23.46
2019-04-25T11:01:15.362Z,23.62
2019-04-25T11:03:48.983Z,23.76
2019-04-25T11:06:19.317Z,23.89
2019-04-25T11:08:49.092Z,23.83
2019-04-25T11:11:17.899Z,23.77
2019-04-25T11:13:46.729Z,24.06
2019-04-25T11:16:16.352Z,23.94
2019-04-25T11:18:46.346Z,24.08
2019-04-25T11:21:15.242Z,24.35
2019-04-25T11:23:46.272Z,24.41
2019-04-25T11:26:14.481Z,24.11
2019-04-25T11:28:45.337Z,24.18
2019-04-25T11:31:15.886Z,23.86
2019-04-25T11:33:44.761Z,23.64
2019-04-25T11:36:13.679Z,23.98
2019-04-25T11:39:00.320Z,24.20
2019-04-25T11:41:29.035Z,24.38
2019-04-25T11:44:00.365Z,24.55
2019-04-25T11:46:29.105Z,24.75
2019-04-25T11:48:57.842Z,24.81
2019-04-25T11:51:26.552Z,25.07
2019-04-25T11:53:55.612Z,25.07
2019-04-25T11:56:24.351Z,25.08
2019-04-25T11:58:54.174Z,25.13
2019-04-25T12:01:24.335Z,24.71
2019-04-25T12:03:54.832Z,24.51
2019-04-25T12:06:24.387Z,24.58
2019-04-25T12:08:55.319Z,24.65
2019-04-25T12:11:24.658Z,24.80
2019-04-25T12:13:54.199Z,24.82
2019-04-25T12:16:24.762Z,25.01
2019-04-25T12:18:56.107Z,25.04
2019-04-25T12:21:24.089Z,25.09
2019-04-25T12:23:52.839Z,25.09
2019-04-25T12:26:24.299Z,24.90
2019-04-25T12:28:54.530Z,24.81
2019-04-25T12:31:23.822Z,24.81
2019-04-25T12:33:54.791Z,24.43
2019-04-25T12:36:24.004Z,23.97
2019-04-25T12:38:54.581Z,23.71
2019-04-25T12:41:24.269Z,23.57
2019-04-25T12:44:10.832Z,23.68
2019-04-25T12:46:43.834Z,23.73
2019-04-25T12:49:13.114Z,24.31
2019-04-25T12:51:43.093Z,24.64
2019-04-25T12:54:11.812Z,24.80
2019-04-25T12:56:40.697Z,24.80
2019-04-25T12:59:09.656Z,24.53
2019-04-25T13:01:38.384Z,23.86
2019-04-25T13:04:07.308Z,23.55
2019-04-25T13:06:36.847Z,23.39
2019-04-25T13:09:07.142Z,23.25
2019-04-25T13:11:35.977Z,23.14
2019-04-25T13:14:04.847Z,23.32
2019-04-25T13:16:34.239Z,23.28
2019-04-25T13:19:13.588Z,23.31
2019-04-25T13:21:34.482Z,23.31
2019-04-25T13:24:03.209Z,23.45
2019-04-25T13:26:33.735Z,23.57
2019-04-25T13:29:16.044Z,23.62
2019-04-25T13:32:04.853Z,23.53
2019-04-25T13:34:38.110Z,23.95
2019-04-25T13:37:07.335Z,24.32
2019-04-25T13:39:36.062Z,24.76
2019-04-25T13:42:06.718Z,25.00
2019-04-25T13:44:35.653Z,24.53
2019-04-25T13:47:04.374Z,24.08
2019-04-25T13:49:33.293Z,24.06
2019-04-25T13:52:02.325Z,24.37
2019-04-25T13:54:31.429Z,24.47
2019-04-25T13:57:00.230Z,24.56
2019-04-25T13:59:28.965Z,24.85
2019-04-25T14:01:57.935Z,25.01
2019-04-25T14:04:28.042Z,25.03
2019-04-25T14:06:56.993Z,24.99
2019-04-25T14:09:27.518Z,25.00
2019-04-25T14:11:56.399Z,24.89
2019-04-25T14:14:25.136Z,24.39
2019-04-25T14:17:04.954Z,24.27
2019-04-25T14:19:34.818Z,23.77
2019-04-25T14:22:05.083Z,23.41
2019-04-25T14:24:35.684Z,23.07
2019-04-25T14:27:04.640Z,22.96
2019-04-25T14:29:33.372Z,23.01
2019-04-25T14:32:03.296Z,23.30
2019-04-25T14:34:33.706Z,23.75
2019-04-25T14:37:02.746Z,24.10
2019-04-25T14:39:31.566Z,24.38
2019-04-25T14:42:00.308Z,24.66
2019-04-25T14:44:29.059Z,24.62
2019-04-25T14:46:57.841Z,24.73
2019-04-25T14:49:26.581Z,24.57
2019-04-25T14:51:55.315Z,24.15
2019-04-25T14:54:28.548Z,23.71
2019-04-25T14:57:01.492Z,23.20
2019-04-25T14:59:30.397Z,22.88
2019-04-25T15:01:59.448Z,22.73
2019-04-25T15:04:28.184Z,22.64
2019-04-25T15:06:56.915Z,22.52
2019-04-25T15:09:26.795Z,22.71
2019-04-25T15:11:55.614Z,22.77
2019-04-25T15:14:24.859Z,22.92
2019-04-25T15:16:53.613Z,22.92
2019-04-25T15:19:23.104Z,22.99
2019-04-25T15:21:52.748Z,22.99
2019-04-25T15:24:22.999Z,22.93
2019-04-25T15:26:52.613Z,22.81
2019-04-25T15:29:21.336Z,22.74
2019-04-25T15:31:56.116Z,22.57
2019-04-25T15:34:22.451Z,22.59
2019-04-25T15:36:55.607Z,22.58
2019-04-25T15:39:28.937Z,22.61
2019-04-25T15:42:00.241Z,22.67
2019-04-25T15:44:30.870Z,22.39
2019-04-25T15:47:01.424Z,22.47
2019-04-25T15:49:32.806Z,22.34
2019-04-25T15:52:01.710Z,22.37
2019-04-25T15:54:30.441Z,22.17
2019-04-25T15:57:00.653Z,22.20
2019-04-25T15:59:30.714Z,22.05
2019-04-25T16:02:07.900Z,21.89
2019-04-25T16:04:30.447Z,21.90
2019-04-25T16:07:00.856Z,21.80
2019-04-25T16:09:29.842Z,21.75
2019-04-25T16:11:58.653Z,21.62
2019-04-25T16:14:28.309Z,21.54
2019-04-25T16:16:57.121Z,21.41
2019-04-25T16:19:25.981Z,21.36
2019-04-25T16:21:54.744Z,21.27
2019-04-25T16:24:23.446Z,21.20
2019-04-25T16:26:52.509Z,21.09
2019-04-25T16:29:21.233Z,21.03
2019-04-25T16:31:49.958Z,21.02
2019-04-25T16:34:18.886Z,20.81
2019-04-25T16:36:47.690Z,20.62
2019-04-25T16:39:20.746Z,20.43
2019-04-25T16:41:49.559Z,20.37
2019-04-25T16:44:22.441Z,20.38
2019-04-25T16:46:51.171Z,20.11
2019-04-25T16:49:21.337Z,19.87
2019-04-25T16:51:50.055Z,19.70
2019-04-25T16:54:18.775Z,19.54
2019-04-25T16:56:47.574Z,19.38
2019-04-25T16:59:16.299Z,19.26
2019-04-25T17:01:45.121Z,19.08
2019-04-25T17:04:13.968Z,18.88
2019-04-25T17:06:42.699Z,18.71
2019-04-25T17:09:14.429Z,18.66
2019-04-25T17:11:43.392Z,18.57
2019-04-25T17:14:25.887Z,18.46
2019-04-25T17:16:56.250Z,18.40
2019-04-25T17:19:26.555Z,18.33
2019-04-25T17:21:55.279Z,18.21
2019-04-25T17:24:24.089Z,18.14
2019-04-25T17:26:52.825Z,18.05
2019-04-25T17:29:21.664Z,18.00
2019-04-25T17:31:57.509Z,17.95
2019-04-25T17:34:27.817Z,17.81
2019-04-25T17:37:15.936Z,17.84
2019-04-25T17:39:48.992Z,17.78
2019-04-25T17:42:17.820Z,17.66
2019-04-25T17:44:46.687Z,17.58
2019-04-25T17:47:15.415Z,17.51
2019-04-25T17:49:44.426Z,17.51
2019-04-25T17:52:13.210Z,17.51
2019-04-25T17:54:42.988Z,17.56
2019-04-25T17:57:11.890Z,17.55
2019-04-25T17:59:41.277Z,17.55
2019-04-25T18:02:10.182Z,17.55
2019-04-25T18:04:42.540Z,17.59
2019-04-25T18:07:11.528Z,17.56
2019-04-25T18:09:40.857Z,17.57
2019-04-25T18:12:11.014Z,17.53
2019-04-25T18:14:40.686Z,17.54
2019-04-25T18:17:10.996Z,17.49
2019-04-25T18:19:43.211Z,17.55
2019-04-25T18:22:25.616Z,17.51
2019-04-25T18:24:58.881Z,17.46
2019-04-25T18:27:29.181Z,17.40
2019-04-25T18:29:58.028Z,17.32
2019-04-25T18:32:28.333Z,17.28
2019-04-25T18:34:58.620Z,17.16
2019-04-25T18:37:35.075Z,17.16
2019-04-25T18:40:18.890Z,17.14
2019-04-25T18:42:49.320Z,17.06
2019-04-25T18:45:19.615Z,16.97
2019-04-25T18:47:48.377Z,16.90
2019-04-25T18:50:19.626Z,16.86
2019-04-25T18:53:02.168Z,16.86
2019-04-25T18:55:41.730Z,16.85
2019-04-25T18:58:15.204Z,16.86
2019-04-25T19:00:45.817Z,16.77
2019-04-25T19:03:32.772Z,16.65
2019-04-25T19:06:03.073Z,16.55
2019-04-25T19:08:31.838Z,16.42
2019-04-25T19:11:00.827Z,16.40
2019-04-25T19:13:29.532Z,16.33
2019-04-25T19:15:58.256Z,16.33
2019-04-25T19:18:27.035Z,16.30
2019-04-25T19:20:55.768Z,16.27
2019-04-25T19:23:24.495Z,16.22
2019-04-25T19:25:53.352Z,16.12
2019-04-25T19:28:22.087Z,16.11
2019-04-25T19:30:51.396Z,16.05
2019-04-25T19:33:21.950Z,16.08
2019-04-25T19:35:50.701Z,16.06
2019-04-25T19:38:19.418Z,15.93
2019-04-25T19:40:55.890Z,15.82
2019-04-25T19:43:38.057Z,15.71
2019-04-25T19:46:06.916Z,15.61
2019-04-25T19:48:35.925Z,15.53
2019-04-25T19:51:04.736Z,15.45
2019-04-25T19:53:33.648Z,15.45
2019-04-25T19:56:02.436Z,15.45
2019-04-25T19:58:31.182Z,15.54
2019-04-25T20:00:59.946Z,15.54
2019-04-25T20:03:30.263Z,15.48
2019-04-25T20:06:00.564Z,15.55
2019-04-25T20:08:33.920Z,15.66
2019-04-25T20:11:13.213Z,15.78
2019-04-25T20:13:42.835Z,15.67
2019-04-25T20:16:12.965Z,15.27
2019-04-25T20:18:41.689Z,14.87
2019-04-25T20:21:10.646Z,14.71
2019-04-25T20:23:39.375Z,14.59
2019-04-25T20:26:08.100Z,14.57
2019-04-25T20:28:36.951Z,14.71
2019-04-25T20:31:05.679Z,14.63
2019-04-25T20:33:34.416Z,14.44
2019-04-25T20:36:17.068Z,14.34
2019-04-25T20:38:35.116Z,14.23
2019-04-25T20:41:03.862Z,14.19
2019-04-25T20:43:32.635Z,14.11
2019-04-25T20:46:01.465Z,14.00
2019-04-25T20:48:30.197Z,14.01
2019-04-25T20:50:59.838Z,14.12
2019-04-25T20:53:28.558Z,14.24
2019-04-25T20:55:57.292Z,14.38
2019-04-25T20:58:26.139Z,14.40
2019-04-25T21:00:56.449Z,14.43
2019-04-25T21:03:28.200Z,14.39
2019-04-25T21:05:58.745Z,14.42
2019-04-25T21:08:27.473Z,14.43
2019-04-25T21:10:56.215Z,14.39
2019-04-25T21:13:26.670Z,14.39
2019-04-25T21:16:13.354Z,14.33
2019-04-25T21:18:43.779Z,14.43
2019-04-25T21:21:12.514Z,14.36
2019-04-25T21:23:41.249Z,14.53
2019-04-25T21:26:11.251Z,14.89
2019-04-25T21:28:39.978Z,14.88
2019-04-25T21:31:08.727Z,14.86
2019-04-25T21:33:37.616Z,14.48
2019-04-25T21:36:06.725Z,14.26
2019-04-25T21:38:35.741Z,14.21
2019-04-25T21:41:18.349Z,14.05
2019-04-25T21:43:51.786Z,14.04
2019-04-25T21:46:21.697Z,13.96
2019-04-25T21:48:50.761Z,13.95
2019-04-25T21:51:31.643Z,13.91
2019-04-25T21:54:01.587Z,13.86
2019-04-25T21:56:30.700Z,14.03
2019-04-25T21:58:59.834Z,14.07
2019-04-25T22:01:34.163Z,13.85
2019-04-25T22:04:02.964Z,13.74
2019-04-25T22:06:32.027Z,13.60
2019-04-25T22:09:01.552Z,13.43
2019-04-25T22:11:30.245Z,13.44
2019-04-25T22:13:59.507Z,13.57
2019-04-25T22:16:28.554Z,13.37
2019-04-25T22:18:57.659Z,13.09
2019-04-25T22:21:37.468Z,13.18
2019-04-25T22:24:05.948Z,13.20
2019-04-25T22:26:27.607Z,13.08
2019-04-25T22:28:56.818Z,12.91
2019-04-25T22:31:28.180Z,12.79
2019-04-25T22:34:01.650Z,12.76
2019-04-25T22:36:30.658Z,12.73
2019-04-25T22:39:11.703Z,12.58
2019-04-25T22:41:46.636Z,12.56
2019-04-25T22:44:15.492Z,12.46
2019-04-25T22:46:45.414Z,12.36
2019-04-25T22:49:14.204Z,12.17
2019-04-25T22:51:42.896Z,12.25
2019-04-25T22:54:12.230Z,12.20
2019-04-25T22:56:41.012Z,12.19
2019-04-25T22:59:10.877Z,12.19
2019-04-25T23:01:53.799Z,12.15
2019-04-25T23:04:27.289Z,12.04
2019-04-25T23:06:56.013Z,12.05
2019-04-25T23:09:25.171Z,12.00
2019-04-25T23:11:54.080Z,12.07
2019-04-25T23:14:24.474Z,12.06
2019-04-25T23:16:53.683Z,12.00
2019-04-25T23:19:22.409Z,12.02
2019-04-25T23:21:51.512Z,11.83
2019-04-25T23:24:21.849Z,11.80
2019-04-25T23:26:55.451Z,11.70
2019-04-25T23:29:24.193Z,11.58
2019-04-25T23:31:53.000Z,11.57
2019-04-25T23:34:22.046Z,11.42
2019-04-25T23:36:50.797Z,11.31
2019-04-25T23:39:19.937Z,11.21
2019-04-25T23:41:48.665Z,11.41
2019-04-25T23:44:18.559Z,11.39
2019-04-25T23:46:47.800Z,11.25
2019-04-25T23:49:16.996Z,11.27
2019-04-25T23:51:46.038Z,11.15
2019-04-25T23:54:15.091Z,11.05
2019-04-25T23:56:43.930Z,10.94
2019-04-25T23:59:13.549Z,10.85
